createdAt,value
2019-01-18T00:00:47.501Z,982.16
2019-01-18T00:01:47.513Z,982.14
2019-01-18T00:02:46.095Z,982.13
2019-01-18T00:03:46.303Z,982.09
2019-01-18T00:04:48.446Z,982.11
2019-01-18T00:05:48.495Z,982.10
2019-01-18T00:06:48.506Z,982.12
2019-01-18T00:07:48.503Z,982.04
2019-01-18T00:08:47.074Z,982.05
2019-01-18T00:09:48.996Z,982.07
2019-01-18T00:10:48.472Z,982.13
2019-01-18T00:11:50.766Z,982.11
2019-01-18T00:12:48.887Z,982.15
2019-01-18T00:13:47.984Z,982.15
2019-01-18T00:16:30.315Z,982.13
2019-01-18T00:17:22.325Z,982.10
2019-01-18T00:18:41.815Z,982.11
2019-01-18T00:19:25.785Z,982.13
2019-01-18T00:20:22.040Z,982.16
2019-01-18T00:21:22.822Z,982.20
2019-01-18T00:22:27.832Z,982.16
2019-01-18T00:23:22.538Z,982.20
2019-01-18T00:24:25.325Z,982.24
2019-01-18T00:25:23.396Z,982.27
2019-01-18T00:26:21.979Z,982.23
2019-01-18T00:27:22.188Z,982.27
2019-01-18T00:28:24.358Z,982.26
2019-01-18T00:29:29.587Z,982.25
2019-01-18T00:30:24.344Z,982.28
2019-01-18T00:31:24.867Z,982.30
2019-01-18T00:32:25.596Z,982.35
2019-01-18T00:33:24.822Z,982.33
2019-01-18T00:34:25.341Z,982.33
2019-01-18T00:35:26.319Z,982.30
2019-01-18T00:36:29.414Z,982.41
2019-01-18T00:37:25.037Z,982.39
2019-01-18T00:38:24.148Z,982.45
2019-01-18T00:39:39.837Z,982.36
2019-01-18T00:40:40.323Z,982.40
2019-01-18T00:41:26.341Z,982.41
2019-01-18T00:42:26.330Z,982.42
2019-01-18T00:43:25.028Z,982.41
2019-01-18T00:44:29.817Z,982.48
2019-01-18T00:45:26.435Z,982.54
2019-01-18T00:46:27.333Z,982.49
2019-01-18T00:47:28.301Z,982.58
2019-01-18T00:48:25.813Z,982.49
2019-01-18T00:49:28.796Z,982.55
2019-01-18T00:50:33.820Z,982.51
2019-01-18T00:51:27.885Z,982.56
2019-01-18T00:52:29.300Z,982.52
2019-01-18T00:53:30.321Z,982.52
2019-01-18T00:54:28.775Z,982.53
2019-01-18T00:55:28.036Z,982.55
2019-01-18T00:56:30.822Z,982.59
2019-01-18T00:57:27.284Z,982.55
2019-01-18T00:58:31.356Z,982.56
2019-01-18T00:59:27.695Z,982.64
2019-01-18T01:00:35.321Z,982.65
2019-01-18T01:01:29.845Z,982.68
2019-01-18T01:02:29.824Z,982.70
2019-01-18T01:03:31.819Z,982.74
2019-01-18T01:04:50.860Z,982.73
2019-01-18T01:05:51.330Z,982.78
2019-01-18T01:06:28.545Z,982.74
2019-01-18T01:07:29.717Z,982.77
2019-01-18T01:08:35.730Z,982.75
2019-01-18T01:09:30.821Z,982.75
2019-01-18T01:10:29.266Z,982.79
2019-01-18T01:11:32.287Z,982.80
2019-01-18T01:12:31.324Z,982.81
2019-01-18T01:13:32.398Z,982.85
2019-01-18T01:14:29.944Z,982.85
2019-01-18T01:15:30.159Z,982.91
2019-01-18T01:16:42.451Z,982.92
2019-01-18T01:17:34.320Z,982.95
2019-01-18T01:18:32.356Z,982.91
2019-01-18T01:19:53.321Z,982.97
2019-01-18T01:20:34.822Z,982.95
2019-01-18T01:21:31.139Z,983.01
2019-01-18T01:22:33.371Z,983.03
2019-01-18T01:23:33.355Z,983.15
2019-01-18T01:24:32.287Z,983.15
2019-01-18T01:25:36.328Z,983.23
2019-01-18T01:26:35.823Z,983.21
2019-01-18T01:27:36.784Z,983.28
2019-01-18T01:28:33.823Z,983.24
2019-01-18T01:29:36.325Z,983.27
2019-01-18T01:30:34.323Z,983.29
2019-01-18T01:31:57.340Z,983.35
2019-01-18T01:32:32.776Z,983.34
2019-01-18T01:33:34.824Z,983.38
2019-01-18T01:34:36.832Z,983.37
2019-01-18T01:35:34.870Z,983.40
2019-01-18T01:36:35.365Z,983.41
2019-01-18T01:37:35.568Z,983.40
2019-01-18T01:38:33.790Z,983.40
2019-01-18T01:39:35.824Z,983.41
2019-01-18T01:40:34.075Z,983.41
2019-01-18T01:41:35.165Z,983.46
2019-01-18T01:42:56.265Z,983.41
2019-01-18T01:43:34.446Z,983.46
2019-01-18T01:44:38.370Z,983.44
2019-01-18T01:45:38.320Z,983.43
2019-01-18T01:46:35.019Z,983.44
2019-01-18T01:47:51.784Z,983.46
2019-01-18T01:48:35.366Z,983.52
2019-01-18T01:49:37.328Z,983.50
2019-01-18T01:50:37.324Z,983.50
2019-01-18T01:51:37.839Z,983.54
2019-01-18T01:52:37.720Z,983.53
2019-01-18T01:53:36.253Z,983.54
2019-01-18T01:54:38.368Z,983.56
2019-01-18T01:55:39.323Z,983.55
2019-01-18T01:56:40.344Z,983.56
2019-01-18T01:57:38.838Z,983.59
2019-01-18T01:58:37.029Z,983.60
2019-01-18T01:59:49.697Z,983.58
2019-01-18T02:00:39.342Z,983.56
2019-01-18T02:01:39.320Z,983.57
2019-01-18T02:02:40.268Z,983.61
2019-01-18T02:03:41.819Z,983.60
2019-01-18T02:04:44.826Z,983.57
2019-01-18T02:05:39.960Z,983.61
2019-01-18T02:06:39.267Z,983.57
2019-01-18T02:07:39.281Z,983.58
2019-01-18T02:08:46.636Z,983.64
2019-01-18T02:09:46.364Z,983.66
2019-01-18T02:10:40.507Z,983.65
2019-01-18T02:11:40.827Z,983.63
2019-01-18T02:12:41.808Z,983.71
2019-01-18T02:13:40.887Z,983.73
2019-01-18T02:14:39.466Z,983.76
2019-01-18T02:15:39.723Z,983.74
2019-01-18T02:16:41.833Z,983.77
2019-01-18T02:17:41.068Z,983.81
2019-01-18T02:18:41.776Z,983.81
2019-01-18T02:19:52.589Z,983.85
2019-01-18T02:20:42.320Z,983.85
2019-01-18T02:21:44.353Z,983.87
2019-01-18T02:22:40.811Z,983.91
2019-01-18T02:23:44.827Z,983.97
2019-01-18T02:24:43.290Z,984.00
2019-01-18T02:25:41.259Z,984.01
2019-01-18T02:26:41.458Z,984.09
2019-01-18T02:29:17.281Z,984.17
2019-01-18T02:30:17.454Z,984.16
2019-01-18T02:31:13.833Z,984.15
2019-01-18T02:32:15.831Z,984.24
2019-01-18T02:33:15.825Z,984.22
2019-01-18T02:34:14.177Z,984.24
2019-01-18T02:35:15.405Z,984.26
2019-01-18T02:36:43.719Z,984.25
2019-01-18T02:37:14.644Z,984.28
2019-01-18T02:38:16.818Z,984.35
2019-01-18T02:39:16.036Z,984.32
2019-01-18T02:40:16.261Z,984.36
2019-01-18T02:41:16.354Z,984.33
2019-01-18T02:42:15.558Z,984.33
2019-01-18T02:43:20.243Z,984.41
2019-01-18T02:44:15.958Z,984.34
2019-01-18T02:45:17.851Z,984.38
2019-01-18T02:46:18.764Z,984.42
2019-01-18T02:47:18.294Z,984.40
2019-01-18T02:48:16.618Z,984.46
2019-01-18T02:49:17.761Z,984.50
2019-01-18T02:50:20.789Z,984.48
2019-01-18T02:51:20.923Z,984.51
2019-01-18T02:52:18.272Z,984.50
2019-01-18T02:53:19.385Z,984.47
2019-01-18T02:54:17.746Z,984.53
2019-01-18T02:55:17.827Z,984.56
2019-01-18T02:56:18.033Z,984.61
2019-01-18T02:57:19.798Z,984.64
2019-01-18T02:58:20.485Z,984.68
2019-01-18T02:59:22.337Z,984.71
2019-01-18T03:00:21.295Z,984.72
2019-01-18T03:01:20.800Z,984.73
2019-01-18T03:02:19.179Z,984.75
2019-01-18T03:03:40.266Z,984.78
2019-01-18T03:04:21.325Z,984.78
2019-01-18T03:05:21.279Z,984.83
2019-01-18T03:06:21.324Z,984.82
2019-01-18T03:07:23.788Z,984.84
2019-01-18T03:08:22.747Z,984.86
2019-01-18T03:09:21.241Z,984.89
2019-01-18T03:10:20.399Z,984.89
2019-01-18T03:11:22.301Z,984.91
2019-01-18T03:12:21.859Z,984.97
2019-01-18T03:13:22.788Z,984.93
2019-01-18T03:14:22.785Z,984.90
2019-01-18T03:15:22.787Z,984.98
2019-01-18T03:16:22.496Z,985.04
2019-01-18T03:17:28.292Z,985.06
2019-01-18T03:18:21.858Z,985.06
2019-01-18T03:19:24.773Z,985.09
2019-01-18T03:20:22.242Z,985.09
2019-01-18T03:21:38.286Z,985.13
2019-01-18T03:22:38.295Z,985.13
2019-01-18T03:23:26.287Z,985.19
2019-01-18T03:24:29.802Z,985.22
2019-01-18T03:25:23.009Z,985.23
2019-01-18T03:26:23.244Z,985.26
2019-01-18T03:27:34.500Z,985.23
2019-01-18T03:28:25.291Z,985.28
2019-01-18T03:29:23.742Z,985.34
2019-01-18T03:30:31.790Z,985.28
2019-01-18T03:31:25.832Z,985.35
2019-01-18T03:32:24.400Z,985.26
2019-01-18T03:33:26.293Z,985.32
2019-01-18T03:34:28.285Z,985.35
2019-01-18T03:35:26.859Z,985.39
2019-01-18T03:36:26.126Z,985.36
2019-01-18T03:37:27.236Z,985.37
2019-01-18T03:38:25.556Z,985.37
2019-01-18T03:39:33.319Z,985.41
2019-01-18T03:40:25.821Z,985.48
2019-01-18T03:41:48.835Z,985.47
2019-01-18T03:42:27.811Z,985.45
2019-01-18T03:43:26.257Z,985.53
2019-01-18T03:44:30.288Z,985.52
2019-01-18T03:45:28.286Z,985.56
2019-01-18T03:46:28.285Z,985.60
2019-01-18T03:47:26.746Z,985.62
2019-01-18T03:48:28.796Z,985.63
2019-01-18T03:49:29.242Z,985.62
2019-01-18T03:50:29.287Z,985.67
2019-01-18T03:51:35.326Z,985.70
2019-01-18T03:52:28.640Z,985.72
2019-01-18T03:53:32.255Z,985.77
2019-01-18T03:54:31.793Z,985.76
2019-01-18T03:55:27.987Z,985.78
2019-01-18T03:56:28.191Z,985.79
2019-01-18T03:57:30.297Z,985.81
2019-01-18T03:58:32.289Z,985.86
2019-01-18T03:59:28.832Z,985.81
2019-01-18T04:00:29.038Z,985.81
2019-01-18T04:01:31.239Z,985.87
2019-01-18T04:02:30.447Z,985.84
2019-01-18T04:03:29.653Z,985.87
2019-01-18T04:04:33.797Z,985.87
2019-01-18T04:05:30.020Z,985.87
2019-01-18T04:06:31.795Z,985.86
2019-01-18T04:07:30.237Z,985.96
2019-01-18T04:08:30.443Z,985.94
2019-01-18T04:09:30.663Z,986.00
2019-01-18T04:10:32.287Z,986.03
2019-01-18T04:11:30.914Z,986.06
2019-01-18T04:12:32.790Z,986.11
2019-01-18T04:13:34.791Z,986.14
2019-01-18T04:14:33.314Z,986.17
2019-01-18T04:15:31.539Z,986.22
2019-01-18T04:16:31.626Z,986.26
2019-01-18T04:17:35.788Z,986.25
2019-01-18T04:18:31.990Z,986.26
2019-01-18T04:19:33.789Z,986.28
2019-01-18T04:20:34.305Z,986.30
2019-01-18T04:21:33.504Z,986.35
2019-01-18T04:22:40.304Z,986.37
2019-01-18T04:23:34.837Z,986.37
2019-01-18T04:24:36.789Z,986.35
2019-01-18T04:25:34.392Z,986.38
2019-01-18T04:26:35.744Z,986.37
2019-01-18T04:27:56.323Z,986.41
2019-01-18T04:29:03.373Z,986.48
2019-01-18T04:29:34.017Z,986.40
2019-01-18T04:30:35.752Z,986.43
2019-01-18T04:31:35.792Z,986.49
2019-01-18T04:32:34.395Z,986.50
2019-01-18T04:33:38.287Z,986.45
2019-01-18T04:34:37.246Z,986.51
2019-01-18T04:35:38.242Z,986.50
2019-01-18T04:36:35.164Z,986.50
2019-01-18T04:37:36.787Z,986.47
2019-01-18T04:38:41.793Z,986.53
2019-01-18T04:39:35.368Z,986.60
2019-01-18T04:40:37.236Z,986.63
2019-01-18T04:41:37.294Z,986.58
2019-01-18T04:42:37.760Z,986.57
2019-01-18T04:43:37.820Z,986.67
2019-01-18T04:44:38.236Z,986.59
2019-01-18T04:45:37.385Z,986.71
2019-01-18T04:46:39.246Z,986.71
2019-01-18T04:47:36.715Z,986.66
2019-01-18T04:48:40.827Z,986.68
2019-01-18T04:49:58.017Z,986.73
2019-01-18T04:50:38.793Z,986.73
2019-01-18T04:51:39.263Z,986.76
2019-01-18T04:52:37.587Z,986.79
2019-01-18T04:53:50.260Z,986.77
2019-01-18T04:54:39.793Z,986.80
2019-01-18T04:55:40.749Z,986.82
2019-01-18T04:56:39.287Z,986.82
2019-01-18T04:57:40.287Z,986.84
2019-01-18T04:58:42.322Z,986.86
2019-01-18T05:00:01.302Z,986.83
2019-01-18T05:00:41.102Z,986.88
2019-01-18T05:01:40.211Z,986.95
2019-01-18T05:02:43.639Z,986.96
2019-01-18T05:03:41.250Z,986.92
2019-01-18T05:04:39.751Z,986.91
2019-01-18T05:05:41.201Z,986.94
2019-01-18T05:06:46.795Z,986.95
2019-01-18T05:09:15.250Z,987.03
2019-01-18T05:10:12.822Z,987.08
2019-01-18T05:11:14.803Z,987.11
2019-01-18T05:12:17.595Z,987.11
2019-01-18T05:13:13.429Z,987.08
2019-01-18T05:14:13.525Z,987.13
2019-01-18T05:15:15.250Z,987.15
2019-01-18T05:16:14.717Z,987.14
2019-01-18T05:17:16.199Z,987.10
2019-01-18T05:18:16.001Z,987.16
2019-01-18T05:19:16.244Z,987.20
2019-01-18T05:20:14.436Z,987.21
2019-01-18T05:21:18.297Z,987.28
2019-01-18T05:22:16.787Z,987.30
2019-01-18T05:23:15.069Z,987.33
2019-01-18T05:24:16.742Z,987.42
2019-01-18T05:25:19.247Z,987.32
2019-01-18T05:26:15.457Z,987.38
2019-01-18T05:27:15.645Z,987.41
2019-01-18T05:28:19.198Z,987.40
2019-01-18T05:29:31.747Z,987.45
2019-01-18T05:30:37.181Z,987.46
2019-01-18T05:31:18.286Z,987.51
2019-01-18T05:32:20.269Z,987.46
2019-01-18T05:33:21.545Z,987.52
2019-01-18T05:34:39.794Z,987.51
2019-01-18T05:35:18.759Z,987.55
2019-01-18T05:36:24.751Z,987.52
2019-01-18T05:37:41.196Z,987.59
2019-01-18T05:38:19.249Z,987.58
2019-01-18T05:39:33.265Z,987.59
2019-01-18T05:40:20.962Z,987.57
2019-01-18T05:41:19.080Z,987.57
2019-01-18T05:42:19.175Z,987.58
2019-01-18T05:43:20.243Z,987.64
2019-01-18T05:44:19.610Z,987.65
2019-01-18T05:45:22.814Z,987.65
2019-01-18T05:46:20.904Z,987.70
2019-01-18T05:47:21.717Z,987.71
2019-01-18T05:48:26.791Z,987.73
2019-01-18T05:49:21.246Z,987.72
2019-01-18T05:50:21.287Z,987.72
2019-01-18T05:51:20.630Z,987.77
2019-01-18T05:52:19.839Z,987.78
2019-01-18T05:53:22.704Z,987.75
2019-01-18T05:54:21.798Z,987.80
2019-01-18T05:55:24.261Z,987.80
2019-01-18T05:56:21.206Z,987.81
2019-01-18T05:57:21.182Z,987.86
2019-01-18T05:58:27.765Z,987.86
2019-01-18T05:59:24.207Z,987.91
2019-01-18T06:00:22.743Z,987.91
2019-01-18T06:01:23.338Z,987.89
2019-01-18T06:02:22.710Z,987.93
2019-01-18T06:03:23.249Z,987.95
2019-01-18T06:04:29.799Z,987.94
2019-01-18T06:05:23.744Z,987.95
2019-01-18T06:06:23.754Z,988.00
2019-01-18T06:07:22.203Z,987.99
2019-01-18T06:08:26.247Z,988.05
2019-01-18T06:09:39.731Z,988.03
2019-01-18T06:10:24.245Z,988.07
2019-01-18T06:11:22.833Z,988.15
2019-01-18T06:12:24.743Z,988.14
2019-01-18T06:13:27.531Z,988.15
2019-01-18T06:14:28.199Z,988.18
2019-01-18T06:15:23.561Z,988.24
2019-01-18T06:16:23.779Z,988.22
2019-01-18T06:17:25.928Z,988.24
2019-01-18T06:18:24.194Z,988.25
2019-01-18T06:19:28.604Z,988.28
2019-01-18T06:20:28.562Z,988.31
2019-01-18T06:21:41.235Z,988.28
2019-01-18T06:22:27.295Z,988.36
2019-01-18T06:23:26.247Z,988.35
2019-01-18T06:24:29.560Z,988.35
2019-01-18T06:25:25.440Z,988.38
2019-01-18T06:26:26.574Z,988.37
2019-01-18T06:27:26.218Z,988.37
2019-01-18T06:28:27.703Z,988.38
2019-01-18T06:29:27.744Z,988.39
2019-01-18T06:30:33.761Z,988.43
2019-01-18T06:31:28.261Z,988.41
2019-01-18T06:32:26.457Z,988.41
2019-01-18T06:33:26.664Z,988.47
2019-01-18T06:34:30.758Z,988.46
2019-01-18T06:35:28.305Z,988.47
2019-01-18T06:36:31.281Z,988.48
2019-01-18T06:37:34.305Z,988.53
2019-01-18T06:38:29.274Z,988.54
2019-01-18T06:39:27.652Z,988.59
2019-01-18T06:40:34.897Z,988.67
2019-01-18T06:41:27.902Z,988.69
2019-01-18T06:42:52.960Z,988.72
2019-01-18T06:43:35.837Z,988.73
2019-01-18T06:44:28.334Z,988.78
2019-01-18T06:45:31.241Z,988.77
2019-01-18T06:46:32.202Z,988.78
2019-01-18T06:47:32.697Z,988.81
2019-01-18T06:48:32.749Z,988.75
2019-01-18T06:49:29.199Z,988.76
2019-01-18T06:50:33.243Z,988.78
2019-01-18T06:51:36.402Z,988.80
2019-01-18T06:52:29.799Z,988.79
2019-01-18T06:53:38.721Z,988.85
2019-01-18T06:54:45.748Z,988.87
2019-01-18T06:55:30.330Z,988.89
2019-01-18T06:56:35.907Z,988.94
2019-01-18T06:57:32.302Z,988.95
2019-01-18T06:58:30.844Z,988.95
2019-01-18T06:59:37.748Z,988.96
2019-01-18T07:00:34.743Z,988.92
2019-01-18T07:01:31.321Z,988.95
2019-01-18T07:02:31.448Z,988.97
2019-01-18T07:03:33.286Z,989.00
2019-01-18T07:04:33.711Z,989.03
2019-01-18T07:05:48.704Z,988.99
2019-01-18T07:06:32.708Z,989.07
2019-01-18T07:07:35.202Z,989.02
2019-01-18T07:08:34.202Z,989.03
2019-01-18T07:09:40.242Z,989.10
2019-01-18T07:10:32.697Z,989.12
2019-01-18T07:11:37.378Z,989.09
2019-01-18T07:12:33.031Z,989.10
2019-01-18T07:13:35.701Z,989.13
2019-01-18T07:14:35.251Z,989.14
2019-01-18T07:15:35.287Z,989.13
2019-01-18T07:16:36.199Z,989.21
2019-01-18T07:17:34.935Z,989.20
2019-01-18T07:18:47.697Z,989.26
2019-01-18T07:19:46.260Z,989.30
2019-01-18T07:20:42.241Z,989.29
2019-01-18T07:21:36.276Z,989.32
2019-01-18T07:22:38.747Z,989.35
2019-01-18T07:24:13.713Z,989.38
2019-01-18T07:24:35.134Z,989.40
2019-01-18T07:25:38.071Z,989.37
2019-01-18T07:26:42.586Z,989.41
2019-01-18T07:29:11.406Z,989.47
2019-01-18T07:30:08.698Z,989.47
2019-01-18T07:31:15.226Z,989.48
2019-01-18T07:32:31.845Z,989.50
2019-01-18T07:33:33.006Z,989.52
2019-01-18T07:34:42.263Z,989.57
2019-01-18T07:35:11.287Z,989.56
2019-01-18T07:36:21.750Z,989.63
2019-01-18T07:37:13.267Z,989.68
2019-01-18T07:38:10.801Z,989.69
2019-01-18T07:39:25.467Z,989.69
2019-01-18T07:40:09.357Z,989.75
2019-01-18T07:41:11.346Z,989.72
2019-01-18T07:42:10.192Z,989.69
2019-01-18T07:43:09.811Z,989.70
2019-01-18T07:44:10.028Z,989.71
2019-01-18T07:45:14.821Z,989.68
2019-01-18T07:46:11.747Z,989.71
2019-01-18T07:47:12.312Z,989.67
2019-01-18T07:48:11.710Z,989.75
2019-01-18T07:49:10.917Z,989.71
2019-01-18T07:50:19.932Z,989.76
2019-01-18T07:51:14.270Z,989.78
2019-01-18T07:52:13.317Z,989.83
2019-01-18T07:53:27.323Z,989.85
2019-01-18T07:54:13.795Z,989.85
2019-01-18T07:55:20.456Z,989.88
2019-01-18T07:56:14.524Z,989.88
2019-01-18T07:57:15.792Z,989.93
2019-01-18T07:58:14.845Z,989.94
2019-01-18T07:59:12.582Z,989.92
2019-01-18T08:00:16.746Z,989.97
2019-01-18T08:01:14.794Z,990.04
2019-01-18T08:02:13.112Z,990.07
2019-01-18T08:03:13.549Z,990.06
2019-01-18T08:04:16.014Z,990.08
2019-01-18T08:05:15.248Z,990.09
2019-01-18T08:06:18.076Z,990.11
2019-01-18T08:07:35.887Z,990.14
2019-01-18T08:08:18.914Z,990.14
2019-01-18T08:09:14.770Z,990.16
2019-01-18T08:10:16.292Z,990.19
2019-01-18T08:11:19.787Z,990.20
2019-01-18T08:12:14.729Z,990.15
2019-01-18T08:13:14.925Z,990.14
2019-01-18T08:14:16.183Z,990.16
2019-01-18T08:15:17.351Z,990.15
2019-01-18T08:16:15.492Z,990.20
2019-01-18T08:17:15.731Z,990.19
2019-01-18T08:18:16.815Z,990.21
2019-01-18T08:19:23.786Z,990.24
2019-01-18T08:20:18.786Z,990.30
2019-01-18T08:21:20.435Z,990.31
2019-01-18T08:22:19.745Z,990.38
2019-01-18T08:23:18.333Z,990.38
2019-01-18T08:24:24.807Z,990.44
2019-01-18T08:25:17.052Z,990.47
2019-01-18T08:26:19.031Z,990.52
2019-01-18T08:27:17.348Z,990.71
2019-01-18T08:28:19.308Z,990.53
2019-01-18T08:29:19.296Z,990.53
2019-01-18T08:30:25.308Z,990.51
2019-01-18T08:31:18.176Z,990.71
2019-01-18T08:32:19.815Z,990.64
2019-01-18T08:33:18.199Z,990.58
2019-01-18T08:34:19.795Z,990.74
2019-01-18T08:35:18.495Z,990.82
2019-01-18T08:36:20.293Z,990.78
2019-01-18T08:37:22.839Z,990.79
2019-01-18T08:38:20.778Z,990.85
2019-01-18T08:39:20.796Z,990.84
2019-01-18T08:40:21.291Z,990.98
2019-01-18T08:41:19.507Z,990.99
2019-01-18T08:42:20.713Z,991.00
2019-01-18T08:43:20.928Z,991.00
2019-01-18T08:44:21.797Z,990.97
2019-01-18T08:45:21.830Z,991.00
2019-01-18T08:46:20.406Z,991.05
2019-01-18T08:47:20.658Z,991.05
2019-01-18T08:48:22.324Z,991.05
2019-01-18T08:49:20.916Z,991.10
2019-01-18T08:50:21.124Z,991.10
2019-01-18T08:51:21.344Z,991.11
2019-01-18T08:52:22.568Z,991.15
2019-01-18T08:53:21.687Z,991.19
2019-01-18T08:54:21.936Z,991.25
2019-01-18T08:55:23.827Z,991.32
2019-01-18T08:56:22.338Z,991.38
2019-01-18T08:57:25.355Z,991.43
2019-01-18T08:58:24.329Z,991.41
2019-01-18T08:59:22.794Z,991.38
2019-01-18T09:00:24.819Z,991.44
2019-01-18T09:01:35.530Z,991.41
2019-01-18T09:02:25.299Z,991.44
2019-01-18T09:03:28.325Z,991.42
2019-01-18T09:04:23.705Z,991.42
2019-01-18T09:05:47.460Z,991.40
2019-01-18T09:06:25.799Z,991.41
2019-01-18T09:07:46.296Z,991.39
2019-01-18T09:08:24.373Z,991.41
2019-01-18T09:09:24.582Z,991.35
2019-01-18T09:10:29.838Z,991.34
2019-01-18T09:11:25.384Z,991.37
2019-01-18T09:12:26.825Z,991.39
2019-01-18T09:13:25.309Z,991.44
2019-01-18T09:14:26.250Z,991.43
2019-01-18T09:15:27.272Z,991.49
2019-01-18T09:16:34.768Z,991.49
2019-01-18T09:17:34.252Z,991.52
2019-01-18T09:18:28.749Z,991.51
2019-01-18T09:19:27.749Z,991.50
2019-01-18T09:20:27.494Z,991.51
2019-01-18T09:21:27.826Z,991.53
2019-01-18T09:22:26.952Z,991.54
2019-01-18T09:23:27.617Z,991.48
2019-01-18T09:24:28.352Z,991.46
2019-01-18T09:25:35.249Z,991.50
2019-01-18T09:26:29.328Z,991.43
2019-01-18T09:27:32.354Z,991.45
2019-01-18T09:28:30.858Z,991.46
2019-01-18T09:29:28.331Z,991.52
2019-01-18T09:30:30.531Z,991.54
2019-01-18T09:31:28.773Z,991.52
2019-01-18T09:32:30.801Z,991.56
2019-01-18T09:33:29.534Z,991.58
2019-01-18T09:34:32.291Z,991.60
2019-01-18T09:35:34.277Z,991.65
2019-01-18T09:36:31.807Z,991.58
2019-01-18T09:37:31.442Z,991.62
2019-01-18T09:38:31.175Z,991.57
2019-01-18T09:39:33.280Z,991.60
2019-01-18T09:40:33.076Z,991.41
2019-01-18T09:41:34.335Z,991.46
2019-01-18T09:42:31.039Z,991.51
2019-01-18T09:43:32.157Z,991.53
2019-01-18T09:44:34.289Z,991.54
2019-01-18T09:45:35.311Z,991.56
2019-01-18T09:46:47.306Z,991.64
2019-01-18T09:47:35.803Z,991.60
2019-01-18T09:48:33.803Z,991.64
2019-01-18T09:49:32.271Z,991.60
2019-01-18T09:50:32.548Z,991.62
2019-01-18T09:51:32.828Z,991.65
2019-01-18T09:52:36.800Z,991.65
2019-01-18T09:53:37.143Z,991.67
2019-01-18T09:54:34.853Z,991.68
2019-01-18T09:55:34.702Z,991.66
2019-01-18T09:56:41.157Z,991.71
2019-01-18T09:57:36.763Z,991.74
2019-01-18T09:58:37.811Z,991.76
2019-01-18T09:59:37.801Z,991.75
2019-01-18T10:00:35.267Z,991.82
2019-01-18T10:01:36.335Z,991.81
2019-01-18T10:02:36.834Z,991.82
2019-01-18T10:03:36.853Z,991.85
2019-01-18T10:04:43.303Z,991.91
2019-01-18T10:05:35.515Z,991.90
2019-01-18T10:06:37.305Z,991.94
2019-01-18T10:07:39.839Z,991.91
2019-01-18T10:08:38.585Z,991.91
2019-01-18T10:09:37.263Z,991.93
2019-01-18T10:10:36.512Z,991.97
2019-01-18T10:11:41.055Z,991.97
2019-01-18T10:12:40.278Z,991.96
2019-01-18T10:13:39.796Z,991.96
2019-01-18T10:14:38.816Z,991.95
2019-01-18T10:15:38.523Z,992.03
2019-01-18T10:16:38.803Z,992.01
2019-01-18T10:17:40.357Z,991.97
2019-01-18T10:18:37.963Z,992.03
2019-01-18T10:19:39.838Z,992.01
2019-01-18T10:20:38.458Z,991.94
2019-01-18T10:21:42.968Z,991.90
2019-01-18T10:22:50.461Z,991.98
2019-01-18T10:23:43.754Z,992.03
2019-01-18T10:24:43.758Z,992.01
2019-01-18T10:26:04.089Z,992.00
2019-01-18T10:26:41.309Z,992.03
2019-01-18T10:27:41.472Z,992.08
2019-01-18T10:28:41.307Z,992.07
2019-01-18T10:29:41.001Z,992.07
2019-01-18T10:30:48.357Z,992.06
2019-01-18T10:31:43.255Z,992.04
2019-01-18T10:32:43.760Z,992.06
2019-01-18T10:33:42.370Z,992.05
2019-01-18T10:34:41.916Z,992.03
2019-01-18T10:35:44.829Z,991.96
2019-01-18T10:36:43.270Z,991.98
2019-01-18T10:37:43.766Z,991.98
2019-01-18T10:38:43.309Z,991.94
2019-01-18T10:39:42.766Z,991.96
2019-01-18T10:41:06.261Z,991.97
2019-01-18T10:41:46.485Z,992.01
2019-01-18T10:42:43.792Z,991.96
2019-01-18T10:43:46.333Z,991.93
2019-01-18T10:44:51.256Z,991.93
2019-01-18T10:45:42.979Z,991.93
2019-01-18T10:46:45.868Z,991.93
2019-01-18T10:47:45.301Z,991.94
2019-01-18T10:48:46.272Z,991.95
2019-01-18T10:49:47.976Z,991.91
2019-01-18T10:50:47.760Z,991.91
2019-01-18T10:52:07.289Z,991.94
2019-01-18T10:54:25.656Z,992.01
2019-01-18T10:55:19.248Z,991.97
2019-01-18T10:56:23.291Z,992.01
2019-01-18T10:57:18.952Z,992.02
2019-01-18T10:58:25.086Z,992.04
2019-01-18T10:59:20.433Z,992.03
2019-01-18T11:00:41.930Z,992.04
2019-01-18T11:01:24.408Z,992.10
2019-01-18T11:02:20.863Z,992.05
2019-01-18T11:03:26.864Z,992.04
2019-01-18T11:04:20.886Z,992.05
2019-01-18T11:05:21.397Z,992.05
2019-01-18T11:06:52.343Z,992.07
2019-01-18T11:07:23.625Z,992.08
2019-01-18T11:08:21.410Z,992.04
2019-01-18T11:09:18.745Z,991.99
2019-01-18T11:10:21.346Z,992.04
2019-01-18T11:11:20.847Z,992.01
2019-01-18T11:14:00.713Z,992.13
2019-01-18T11:14:55.382Z,992.16
2019-01-18T11:15:56.366Z,992.17
2019-01-18T11:16:59.895Z,992.16
2019-01-18T11:18:16.896Z,992.11
2019-01-18T11:18:55.734Z,992.08
2019-01-18T11:19:56.878Z,992.04
2019-01-18T11:20:56.849Z,991.95
2019-01-18T11:22:01.327Z,991.86
2019-01-18T11:23:03.568Z,991.86
2019-01-18T11:23:55.033Z,991.87
2019-01-18T11:24:55.043Z,991.84
2019-01-18T11:25:59.025Z,991.83
2019-01-18T11:26:56.495Z,991.81
2019-01-18T11:28:06.054Z,991.81
2019-01-18T11:29:01.957Z,991.86
2019-01-18T11:30:16.994Z,991.83
2019-01-18T11:31:02.054Z,991.84
2019-01-18T11:32:18.592Z,991.87
2019-01-18T11:32:56.545Z,991.89
2019-01-18T11:33:58.559Z,991.86
2019-01-18T11:34:58.454Z,991.87
2019-01-18T11:36:02.359Z,991.87
2019-01-18T11:37:05.606Z,991.89
2019-01-18T11:39:45.465Z,991.90
2019-01-18T11:46:20.830Z,991.97
2019-01-18T11:47:19.635Z,991.97
2019-01-18T11:48:19.538Z,991.97
2019-01-18T11:49:23.963Z,991.95
2019-01-18T11:50:38.097Z,991.92
2019-01-18T11:51:22.074Z,991.96
2019-01-18T11:52:19.531Z,991.92
2019-01-18T11:53:17.081Z,991.97
2019-01-18T11:54:19.531Z,991.94
2019-01-18T11:58:28.740Z,991.93
2019-01-18T11:59:27.355Z,991.94
2019-01-18T12:00:24.465Z,991.92
2019-01-18T12:01:24.953Z,991.89
2019-01-18T12:02:23.074Z,991.86
2019-01-18T12:03:27.489Z,991.85
2019-01-18T12:04:26.370Z,991.88
2019-01-18T12:05:39.115Z,991.89
2019-01-18T12:06:26.892Z,991.93
2019-01-18T12:07:26.274Z,991.91
2019-01-18T12:08:22.471Z,991.88
2019-01-18T12:09:23.649Z,991.96
2019-01-18T12:10:39.421Z,991.90
2019-01-18T12:11:45.578Z,991.89
2019-01-18T12:12:25.449Z,991.88
2019-01-18T12:13:26.111Z,991.88
2019-01-18T12:14:25.169Z,991.91
2019-01-18T12:15:26.616Z,991.83
2019-01-18T12:16:25.672Z,991.86
2019-01-18T12:17:24.032Z,991.83
2019-01-18T12:18:31.240Z,991.80
2019-01-18T12:19:47.081Z,991.81
2019-01-18T12:20:46.695Z,991.83
2019-01-18T12:23:35.222Z,991.86
2019-01-18T12:24:10.389Z,991.85
2019-01-18T12:25:06.088Z,991.92
2019-01-18T12:26:15.810Z,991.88
2019-01-18T12:27:15.427Z,991.88
2019-01-18T12:28:02.116Z,991.88
2019-01-18T12:29:23.340Z,991.87
2019-01-18T12:30:02.687Z,991.89
2019-01-18T12:31:24.656Z,991.85
2019-01-18T12:32:05.506Z,991.86
2019-01-18T12:34:03.610Z,991.78
2019-01-18T12:35:24.872Z,991.84
2019-01-18T12:36:03.398Z,991.80
2019-01-18T12:37:05.919Z,991.79
2019-01-18T12:38:05.755Z,991.80
2019-01-18T12:39:19.536Z,991.82
2019-01-18T12:40:06.226Z,991.83
2019-01-18T12:41:05.058Z,991.85
2019-01-18T12:42:03.807Z,991.79
2019-01-18T12:43:06.994Z,991.82
2019-01-18T12:44:25.672Z,991.82
2019-01-18T12:45:06.872Z,991.82
2019-01-18T12:46:07.829Z,991.80
2019-01-18T12:47:08.768Z,991.81
2019-01-18T12:48:08.324Z,991.79
2019-01-18T12:49:28.391Z,991.75
2019-01-18T12:50:06.772Z,991.77
2019-01-18T12:51:06.368Z,991.78
2019-01-18T12:52:05.847Z,991.79
2019-01-18T12:53:07.895Z,991.80